Time;durP1;ratioP1;P1;durP2;ratioP2;P2;SDS_P1;SDS_P2;PMS_P1;PMS_P2;Temp;Humidity;BMP_temperature;BMP_pressure;BME280_temperature;BME280_humidity;BME280_pressure;Samples;Min_cycle;Max_cycle;Signal;HPM_P1;HPM_P2
2022/05/30 03:00:45;;;;;;;49.77;12.03;;;4.80;99.90;;;;;;5844012;22;20224;-76
2022/05/30 03:03:11;;;;;;;27.87;12.50;;;4.90;99.90;;;;;;4990827;28;20176;-78
2022/05/30 03:05:38;;;;;;;24.17;12.00;;;5.00;99.90;;;;;;5001203;28;20181;-76
2022/05/30 03:08:06;;;;;;;43.63;15.00;;;5.00;99.90;;;;;;4990954;28;20281;-76
2022/05/30 03:10:32;;;;;;;28.77;14.53;;;5.00;99.90;;;;;;4997555;28;20227;-77
2022/05/30 03:12:58;;;;;;;27.50;12.77;;;4.90;99.90;;;;;;5014230;28;20302;-76
2022/05/30 03:15:24;;;;;;;34.00;15.27;;;4.90;99.90;;;;;;5032993;23;20300;-77
2022/05/30 03:17:51;;;;;;;69.40;15.17;;;4.90;99.90;;;;;;5016224;28;20280;-77
2022/05/30 03:20:20;;;;;;;45.77;14.33;;;5.00;99.90;;;;;;5023992;28;20187;-77
2022/05/30 03:22:49;;;;;;;20.80;18.47;;;4.90;99.90;;;;;;5024124;28;20183;-78
2022/05/30 03:25:16;;;;;;;24.70;17.90;;;4.90;99.90;;;;;;5022609;28;20223;-77
2022/05/30 03:27:43;;;;;;;24.00;9.63;;;4.90;99.90;;;;;;5020810;28;20179;-79
2022/05/30 03:30:10;;;;;;;111.03;24.03;;;4.90;99.90;;;;;;4989343;28;20173;-78
2022/05/30 03:32:36;;;;;;;32.23;20.83;;;4.90;99.90;;;;;;5014964;28;20187;-77
2022/05/30 03:35:02;;;;;;;19.03;17.70;;;5.00;99.90;;;;;;5024670;28;20186;-75
2022/05/30 03:37:28;;;;;;;33.90;16.97;;;5.10;99.90;;;;;;5014231;28;20298;-77
2022/05/30 03:39:53;;;;;;;17.50;15.80;;;5.20;99.90;;;;;;5012520;28;20287;-77
2022/05/30 03:42:19;;;;;;;32.93;14.90;;;5.20;99.90;;;;;;5015002;28;20785;-77
2022/05/30 03:44:45;;;;;;;21.27;15.07;;;5.30;99.90;;;;;;5014740;28;20604;-77
2022/05/30 03:47:11;;;;;;;15.57;12.73;;;5.30;99.90;;;;;;5015192;28;20199;-78
2022/05/30 03:49:37;;;;;;;38.33;25.13;;;5.30;99.90;;;;;;5014457;28;20207;-78
2022/05/30 03:52:04;;;;;;;33.27;17.90;;;5.30;99.90;;;;;;5002403;28;20180;-78
2022/05/30 03:54:30;;;;;;;20.73;13.10;;;5.30;99.90;;;;;;4996159;28;20188;-78
2022/05/30 03:56:56;;;;;;;24.60;10.13;;;5.40;99.90;;;;;;4995440;28;20222;-78
2022/05/30 03:59:22;;;;;;;15.67;9.33;;;5.20;99.90;;;;;;4995232;28;20263;-78
2022/05/30 04:01:48;;;;;;;31.27;9.20;;;5.20;99.90;;;;;;4995727;28;20180;-78
2022/05/30 04:04:13;;;;;;;25.37;9.83;;;5.10;99.90;;;;;;4994576;28;20199;-78
2022/05/30 04:06:40;;;;;;;61.03;11.97;;;5.00;99.90;;;;;;4995756;28;20196;-78
2022/05/30 04:09:07;;;;;;;25.53;11.93;;;5.00;99.90;;;;;;4994300;28;20176;-78
2022/05/30 04:11:33;;;;;;;26.70;12.20;;;5.00;99.90;;;;;;4994176;28;20185;-78
2022/05/30 04:13:58;;;;;;;19.17;8.77;;;5.10;99.90;;;;;;4994979;28;20239;-78
2022/05/30 04:16:24;;;;;;;23.73;13.53;;;5.10;99.90;;;;;;4996232;28;20215;-78
2022/05/30 04:18:51;;;;;;;44.60;13.27;;;5.10;99.90;;;;;;4996548;28;20180;-78
2022/05/30 04:21:17;;;;;;;20.67;14.20;;;5.20;99.90;;;;;;4997465;28;20180;-78
2022/05/30 04:23:43;;;;;;;22.43;11.57;;;5.20;99.90;;;;;;4999134;28;20182;-78
2022/05/30 04:26:15;;;;;;;12.33;11.20;;;5.30;99.90;;;;;;4997496;28;20240;-78
2022/05/30 04:28:41;;;;;;;10.20;9.20;;;5.40;99.90;;;;;;4993810;28;20246;-77
2022/05/30 04:31:12;;;;;;;26.70;24.03;;;5.40;99.90;;;;;;4994108;28;20184;-78
2022/05/30 04:33:40;;;;;;;30.90;28.13;;;5.40;99.90;;;;;;4997429;28;20223;-78
2022/05/30 04:36:11;;;;;;;29.37;18.30;;;5.30;99.90;;;;;;4996844;28;20292;-79
2022/05/30 04:38:37;;;;;;;20.83;18.70;;;5.30;99.90;;;;;;4995797;28;20220;-79
2022/05/30 04:41:03;;;;;;;22.37;20.97;;;5.30;99.90;;;;;;4995901;28;20238;-78
2022/05/30 04:43:30;;;;;;;52.47;20.73;;;5.40;99.90;;;;;;4994015;28;20208;-77
2022/05/30 04:46:17;;;;;;;29.33;27.40;;;5.50;99.90;;;;;;4994080;28;20211;-78
2022/05/30 04:48:44;;;;;;;9.57;8.73;;;5.60;99.90;;;;;;5003289;28;20187;-77
2022/05/30 04:51:10;;;;;;;9.07;7.77;;;5.60;99.90;;;;;;4996267;28;20222;-78
2022/05/30 04:53:36;;;;;;;15.03;8.13;;;5.60;99.90;;;;;;4994499;28;20195;-78
2022/05/30 04:56:03;;;;;;;19.73;8.53;;;5.60;99.90;;;;;;4993552;28;20205;-78
2022/05/30 04:58:32;;;;;;;12.97;9.20;;;5.70;99.90;;;;;;4993785;28;20219;-78
2022/05/30 05:01:04;;;;;;;10.57;9.63;;;5.80;99.90;;;;;;4993470;28;20173;-77
2022/05/30 05:03:32;;;;;;;15.63;14.33;;;5.90;99.90;;;;;;4996077;28;20181;-77
2022/05/30 05:06:07;;;;;;;12.80;12.07;;;6.10;99.90;;;;;;4994223;28;20200;-78
2022/05/30 05:08:51;;;;;;;13.07;11.80;;;6.30;99.90;;;;;;4996960;28;20270;-77
2022/05/30 05:11:23;;;;;;;17.00;15.87;;;6.40;99.90;;;;;;4999655;28;20256;-78
2022/05/30 05:13:51;;;;;;;18.87;17.87;;;6.60;99.90;;;;;;5000620;28;20198;-78
2022/05/30 05:16:19;;;;;;;40.07;36.27;;;6.70;99.90;;;;;;5000719;28;20216;-77
2022/05/30 05:18:46;;;;;;;14.13;13.00;;;6.70;99.90;;;;;;5000926;28;20255;-78
2022/05/30 05:21:19;;;;;;;15.00;14.20;;;6.80;99.90;;;;;;4997961;28;20187;-78
2022/05/30 05:23:46;;;;;;;15.97;14.53;;;6.90;99.90;;;;;;4995619;28;20558;-78
2022/05/30 05:26:12;;;;;;;16.13;14.43;;;7.00;99.90;;;;;;4994296;28;20204;-78
2022/05/30 05:28:38;;;;;;;9.67;8.87;;;7.10;99.90;;;;;;4993150;28;20188;-78
2022/05/30 05:31:06;;;;;;;10.67;8.17;;;7.30;99.90;;;;;;4995391;28;20184;-78
2022/05/30 05:33:33;;;;;;;46.90;9.20;;;7.40;99.90;;;;;;4992207;28;20187;-75
2022/05/30 05:35:58;;;;;;;9.43;8.50;;;7.40;99.90;;;;;;4990759;28;20207;-75
2022/05/30 05:38:24;;;;;;;8.93;8.20;;;7.40;99.90;;;;;;4991810;28;20215;-75
2022/05/30 05:40:51;;;;;;;10.37;9.40;;;7.40;99.90;;;;;;4991857;28;20275;-76
2022/05/30 05:43:17;;;;;;;13.97;12.70;;;7.40;99.90;;;;;;4990761;28;20239;-75
2022/05/30 05:45:43;;;;;;;12.63;11.93;;;7.50;99.90;;;;;;4992702;28;20196;-75
2022/05/30 05:48:10;;;;;;;12.60;11.80;;;7.70;99.90;;;;;;4990509;28;20611;-76
2022/05/30 05:50:41;;;;;;;9.43;8.33;;;7.90;99.90;;;;;;4990684;28;20187;-75
2022/05/30 05:53:08;;;;;;;7.17;6.77;;;7.90;99.90;;;;;;4992882;28;20185;-76
2022/05/30 05:55:34;;;;;;;6.37;6.03;;;8.10;99.90;;;;;;4992011;28;20254;-76
2022/05/30 05:58:00;;;;;;;7.47;7.00;;;8.40;99.90;;;;;;4990433;28;20704;-76
2022/05/30 06:00:26;;;;;;;10.73;9.83;;;8.50;99.90;;;;;;4991913;28;20230;-75
2022/05/30 06:02:52;;;;;;;11.13;10.40;;;8.70;99.90;;;;;;4990916;28;20195;-75
2022/05/30 06:05:18;;;;;;;8.87;8.20;;;8.90;99.90;;;;;;4990171;28;20201;-76
2022/05/30 06:07:44;;;;;;;5.93;5.63;;;9.30;99.90;;;;;;4991562;28;20212;-76
2022/05/30 06:10:14;;;;;;;8.07;7.43;;;10.00;99.90;;;;;;4991583;28;20679;-76
2022/05/30 06:12:45;;;;;;;19.00;17.93;;;10.30;99.90;;;;;;4990597;28;20177;-76
2022/05/30 06:15:14;;;;;;;13.50;12.80;;;10.70;99.90;;;;;;4991720;28;20188;-76
2022/05/30 06:17:41;;;;;;;7.07;6.67;;;11.30;99.90;;;;;;4991517;28;20202;-76
2022/05/30 06:20:10;;;;;;;6.90;6.50;;;12.10;99.90;;;;;;4991309;28;20190;-76
2022/05/30 06:22:36;;;;;;;7.57;7.07;;;12.90;99.90;;;;;;4991742;28;20652;-76
2022/05/30 06:25:02;;;;;;;5.10;4.80;;;13.30;99.90;;;;;;4990429;28;20184;-76
2022/05/30 06:27:28;;;;;;;5.60;5.20;;;13.70;99.90;;;;;;4991375;28;20215;-76
2022/05/30 06:29:53;;;;;;;5.00;4.80;;;13.90;99.90;;;;;;4990387;28;20214;-75
2022/05/30 06:32:19;;;;;;;7.77;7.37;;;14.10;99.90;;;;;;4991834;28;20180;-77
2022/05/30 06:34:45;;;;;;;6.70;6.30;;;14.80;99.90;;;;;;4990298;28;20188;-76
2022/05/30 06:37:11;;;;;;;7.07;6.57;;;15.60;99.90;;;;;;4991038;28;20624;-77
2022/05/30 06:39:38;;;;;;;6.67;6.13;;;15.70;99.90;;;;;;4989379;28;20235;-76
2022/05/30 06:42:08;;;;;;;6.63;6.03;;;15.80;99.90;;;;;;4989701;28;20180;-76
2022/05/30 06:44:35;;;;;;;13.23;12.57;;;16.00;99.90;;;;;;4993271;28;20180;-76
2022/05/30 06:47:02;;;;;;;17.40;16.50;;;16.10;99.90;;;;;;4993879;28;20204;-76
2022/05/30 06:49:28;;;;;;;16.47;15.60;;;16.30;99.90;;;;;;4994285;28;20199;-77
2022/05/30 06:51:53;;;;;;;12.57;11.57;;;16.60;99.90;;;;;;4995562;28;20184;-77
2022/05/30 06:54:20;;;;;;;12.87;12.23;;;16.50;99.90;;;;;;4994550;28;20688;-77
2022/05/30 06:59:31;;;;;;;7.47;7.07;;;17.20;99.90;;;;;;4980697;28;20206;-76
2022/05/30 07:01:59;;;;;;;9.13;8.63;;;17.00;99.90;;;;;;4976280;28;20177;-75
2022/05/30 07:04:28;;;;;;;7.57;7.17;;;17.10;99.90;;;;;;4985391;28;20180;-75
2022/05/30 07:06:54;;;;;;;7.90;7.40;;;17.30;99.90;;;;;;4994480;28;20401;-75
2022/05/30 07:09:20;;;;;;;8.13;7.73;;;17.50;99.90;;;;;;4994678;28;20271;-75
2022/05/30 07:11:46;;;;;;;6.87;6.50;;;17.80;99.90;;;;;;4993819;28;20648;-75
2022/05/30 07:14:12;;;;;;;6.63;6.13;;;17.90;99.90;;;;;;4994318;28;20203;-75
2022/05/30 07:16:39;;;;;;;4.67;4.47;;;18.40;99.90;;;;;;4994437;28;20212;-75
2022/05/30 07:19:07;;;;;;;5.93;5.57;;;18.50;99.90;;;;;;4992999;28;20516;-76
2022/05/30 07:21:33;;;;;;;6.47;5.97;;;19.00;99.90;;;;;;4993451;28;20176;-75
2022/05/30 07:23:59;;;;;;;5.53;5.23;;;18.90;97.90;;;;;;4988881;28;20181;-75
2022/05/30 07:26:24;;;;;;;6.00;5.60;;;19.30;99.90;;;;;;4986695;28;20226;-75
2022/05/30 07:28:53;;;;;;;4.73;4.43;;;19.60;99.90;;;;;;4992634;28;20688;-75
2022/05/30 07:31:21;;;;;;;4.63;4.37;;;19.60;99.60;;;;;;4977593;28;20204;-75
2022/05/30 07:33:48;;;;;;;4.90;4.50;;;19.40;96.30;;;;;;4982249;28;20659;-75
2022/05/30 07:36:21;;;;;;;4.43;4.20;;;19.40;94.60;;;;;;4991910;28;20200;-76
2022/05/30 07:38:47;;;;;;;5.00;4.60;;;19.30;95.90;;;;;;4992307;28;20214;-75
2022/05/30 07:41:14;;;;;;;6.60;6.00;;;19.60;92.20;;;;;;4992791;28;20533;-75
2022/05/30 07:43:40;;;;;;;4.17;3.87;;;19.90;92.30;;;;;;4992035;28;20218;-75
2022/05/30 07:46:08;;;;;;;4.15;3.85;;;20.10;88.90;;;;;;4994094;28;20214;-75
2022/05/30 07:48:35;;;;;;;4.72;4.53;;;20.10;92.10;;;;;;4994070;28;20335;-75
2022/05/30 07:51:02;;;;;;;4.90;4.60;;;20.20;92.90;;;;;;4994362;28;20191;-75
2022/05/30 07:53:29;;;;;;;4.82;4.35;;;20.00;93.10;;;;;;4994363;28;20215;-75
2022/05/30 07:55:55;;;;;;;5.37;4.97;;;19.70;92.10;;;;;;4994136;28;20771;-76
2022/05/30 07:58:21;;;;;;;5.68;5.18;;;19.70;93.40;;;;;;4986382;28;20256;-75
2022/05/30 08:00:49;;;;;;;4.90;4.50;;;20.30;93.60;;;;;;4975377;28;20193;-75
2022/05/30 08:03:16;;;;;;;4.60;4.30;;;20.30;91.50;;;;;;4979817;28;20184;-75
2022/05/30 08:05:43;;;;;;;4.20;3.92;;;20.60;90.50;;;;;;4992939;28;20203;-76
2022/05/30 08:08:11;;;;;;;4.77;3.90;;;20.50;90.00;;;;;;4992391;28;20242;-75
2022/05/30 08:10:37;;;;;;;5.97;5.65;;;20.20;90.40;;;;;;4993897;28;20200;-75
2022/05/30 08:13:03;;;;;;;5.07;4.67;;;20.40;92.80;;;;;;4993264;28;20545;-75
2022/05/30 08:15:30;;;;;;;8.10;7.30;;;20.00;91.10;;;;;;4993602;28;20729;-75
2022/05/30 08:17:58;;;;;;;6.88;6.38;;;20.40;92.30;;;;;;4992984;28;20584;-75
2022/05/30 08:20:26;;;;;;;5.60;5.22;;;20.40;91.30;;;;;;4991332;28;20185;-75
2022/05/30 08:22:52;;;;;;;4.25;4.00;;;20.20;90.90;;;;;;4992070;28;20188;-75
2022/05/30 08:25:19;;;;;;;4.47;4.07;;;20.20;85.20;;;;;;4993300;28;20201;-75
2022/05/30 08:27:46;;;;;;;4.95;4.05;;;20.50;91.40;;;;;;4993641;28;20676;-76
2022/05/30 08:30:15;;;;;;;4.53;4.07;;;20.40;85.80;;;;;;4993805;28;20184;-76
2022/05/30 08:32:43;;;;;;;3.80;3.60;;;20.60;89.20;;;;;;4993644;28;20280;-75
2022/05/30 08:35:13;;;;;;;3.50;3.30;;;21.30;90.70;;;;;;4992297;28;20180;-76
2022/05/30 08:37:40;;;;;;;4.18;3.97;;;21.40;84.70;;;;;;4985294;28;20204;-75
2022/05/30 08:43:13;;;;;;;5.65;5.22;;;20.90;88.60;;;;;;4978641;28;20180;-76
2022/05/30 08:45:40;;;;;;;4.60;4.20;;;21.20;90.60;;;;;;4993094;28;20200;-76
2022/05/30 08:48:15;;;;;;;3.65;3.42;;;21.60;84.40;;;;;;4991308;28;20593;-75
2022/05/30 08:51:32;;;;;;;4.35;4.15;;;22.10;83.70;;;;;;4993095;28;20911;-76
2022/05/30 08:54:27;;;;;;;4.20;3.97;;;21.90;82.20;;;;;;4951031;28;20355;-76
2022/05/30 08:56:56;;;;;;;3.83;3.63;;;21.40;82.20;;;;;;4972150;28;20223;-76
2022/05/30 08:59:31;;;;;;;4.07;3.75;;;21.30;84.20;;;;;;4972133;28;20616;-76
2022/05/30 09:02:13;;;;;;;4.18;3.88;;;21.40;85.10;;;;;;4972408;28;20579;-74
2022/05/30 09:04:51;;;;;;;4.15;3.75;;;21.40;83.60;;;;;;4973497;28;20189;-74
2022/05/30 09:07:22;;;;;;;3.95;3.75;;;22.00;85.10;;;;;;4972456;28;20742;-74
2022/05/30 09:09:58;;;;;;;5.00;4.60;;;22.70;84.30;;;;;;4973423;28;20597;-75
2022/05/30 09:12:36;;;;;;;5.78;5.22;;;23.30;80.20;;;;;;4973497;28;20272;-75
2022/05/30 09:15:14;;;;;;;4.32;4.13;;;23.20;75.60;;;;;;4973921;28;20596;-75
2022/05/30 09:17:48;;;;;;;4.35;4.05;;;22.90;77.10;;;;;;5027767;23;20232;-76
2022/05/30 09:20:20;;;;;;;4.38;4.07;;;22.70;77.10;;;;;;4993041;28;20286;-76
2022/05/30 09:22:46;;;;;;;4.00;3.80;;;22.80;77.70;;;;;;4991956;28;20566;-76
2022/05/30 09:28:06;;;;;;;4.43;4.03;;;23.50;72.00;;;;;;4969158;28;20283;-76
2022/05/30 09:30:41;;;;;;;5.32;4.93;;;23.60;69.50;;;;;;4972480;28;20283;-76
2022/05/30 09:33:21;;;;;;;4.30;3.95;;;23.90;72.30;;;;;;4972282;28;20192;-76
2022/05/30 09:35:47;;;;;;;5.97;5.47;;;23.70;67.90;;;;;;4968385;28;20273;-76
2022/05/30 09:38:21;;;;;;;3.90;3.63;;;23.60;70.40;;;;;;4972266;28;20259;-77
2022/05/30 09:40:56;;;;;;;5.25;5.00;;;24.20;67.90;;;;;;4972496;28;20187;-76
2022/05/30 09:43:26;;;;;;;6.00;5.70;;;24.30;59.40;;;;;;4972909;28;20679;-76
2022/05/30 09:45:54;;;;;;;6.47;6.07;;;23.80;58.40;;;;;;4987782;28;20181;-76
2022/05/30 09:48:21;;;;;;;4.70;4.50;;;22.90;60.70;;;;;;4972726;28;20753;-74
2022/05/30 09:50:48;;;;;;;7.00;4.40;;;23.10;60.00;;;;;;4987756;28;20180;-75
2022/05/30 09:53:38;;;;;;;6.82;6.38;;;23.20;60.10;;;;;;4972705;28;20187;-74
2022/05/30 09:56:04;;;;;;;7.72;7.32;;;23.90;59.10;;;;;;4972953;28;20600;-76
2022/05/30 09:58:58;;;;;;;5.28;4.88;;;23.90;57.70;;;;;;4971175;28;20209;-75
2022/05/30 10:01:25;;;;;;;5.95;5.65;;;24.30;60.70;;;;;;4972838;28;20180;-74
2022/05/30 10:04:00;;;;;;;5.05;4.63;;;24.60;63.90;;;;;;4973843;28;20184;-75
2022/05/30 10:06:27;;;;;;;5.30;4.97;;;24.70;62.00;;;;;;4988414;28;20215;-76
2022/05/30 10:09:17;;;;;;;5.85;5.00;;;24.20;64.10;;;;;;4972247;28;20177;-76
2022/05/30 10:11:52;;;;;;;6.13;5.82;;;24.20;62.40;;;;;;4971382;28;20188;-76
2022/05/30 10:14:24;;;;;;;6.32;6.03;;;23.60;62.90;;;;;;4972288;28;20703;-76
2022/05/30 10:16:53;;;;;;;5.43;5.13;;;22.80;64.10;;;;;;4972105;28;20332;-74
2022/05/30 10:19:26;;;;;;;4.18;3.90;;;21.10;65.90;;;;;;4974280;28;20637;-75
2022/05/30 10:28:16;;;;;;;6.90;6.43;;;18.90;77.20;;;;;;4976584;28;20581;-75
2022/05/30 10:30:59;;;;;;;4.97;4.67;;;19.20;76.00;;;;;;4975618;28;20626;-75
2022/05/30 10:33:48;;;;;;;5.17;4.73;;;19.60;73.00;;;;;;4975251;28;20675;-75
2022/05/30 10:36:46;;;;;;;5.72;5.38;;;20.20;73.70;;;;;;4976339;28;20201;-75
2022/05/30 10:39:30;;;;;;;5.78;5.32;;;21.40;66.60;;;;;;4971766;28;20251;-75
2022/05/30 10:42:03;;;;;;;4.90;4.53;;;22.40;64.90;;;;;;4974407;28;20279;-75
2022/05/30 10:44:38;;;;;;;3.75;3.55;;;22.80;61.20;;;;;;4969388;28;20269;-75
2022/05/30 10:47:16;;;;;;;4.45;4.15;;;23.10;59.30;;;;;;4956640;28;20241;-75
2022/05/30 10:49:57;;;;;;;7.53;7.07;;;23.70;57.90;;;;;;4971188;28;20552;-75
2022/05/30 10:52:39;;;;;;;6.53;6.13;;;23.90;56.80;;;;;;4955600;29;20193;-75
2022/05/30 10:55:11;;;;;;;5.65;4.30;;;24.60;55.70;;;;;;4971406;28;20211;-73
2022/05/30 10:57:48;;;;;;;4.60;4.20;;;24.50;52.50;;;;;;4968274;28;20669;-75
2022/05/30 11:00:22;;;;;;;3.47;3.25;;;25.00;54.10;;;;;;4970217;28;20561;-75
2022/05/30 11:03:24;;;;;;;3.40;3.20;;;25.40;47.90;;;;;;4973390;28;20198;-75
2022/05/30 11:05:56;;;;;;;3.25;3.00;;;24.80;48.00;;;;;;4957501;29;20240;-75
2022/05/30 11:08:48;;;;;;;3.50;3.30;;;24.80;49.60;;;;;;4955571;28;20658;-75
2022/05/30 11:11:32;;;;;;;3.78;3.58;;;25.30;48.60;;;;;;4956321;29;20182;-74
2022/05/30 11:14:31;;;;;;;3.08;2.85;;;25.40;50.60;;;;;;4956018;28;20189;-75
2022/05/30 11:17:20;;;;;;;3.28;3.17;;;25.20;50.20;;;;;;4955613;29;20221;-75
2022/05/30 11:19:52;;;;;;;3.20;3.00;;;24.70;50.20;;;;;;4956222;28;20182;-75
2022/05/30 11:22:39;;;;;;;4.30;4.00;;;24.60;53.50;;;;;;4957750;29;20661;-84
2022/05/30 11:25:09;;;;;;;4.30;3.90;;;23.80;54.90;;;;;;4956610;29;20272;-74
2022/05/30 11:27:41;;;;;;;6.68;6.38;;;23.30;58.60;;;;;;4971202;28;20241;-71
2022/05/30 11:30:29;;;;;;;6.25;5.85;;;23.50;59.30;;;;;;4956154;28;20196;-72
2022/05/30 11:33:13;;;;;;;4.75;4.50;;;23.60;58.80;;;;;;4960776;28;20185;-71
2022/05/30 11:36:13;;;;;;;6.68;6.18;;;23.20;56.10;;;;;;4975320;28;20189;-71
2022/05/30 11:38:59;;;;;;;5.55;5.05;;;22.00;56.20;;;;;;4974605;28;20275;-71
2022/05/30 11:41:49;;;;;;;3.80;3.50;;;21.20;57.90;;;;;;4975102;28;20551;-71
2022/05/30 11:44:34;;;;;;;4.03;3.83;;;20.50;58.00;;;;;;4974674;28;20185;-71
2022/05/30 11:47:10;;;;;;;4.20;3.80;;;20.50;59.10;;;;;;4974476;28;20202;-72
2022/05/30 11:50:00;;;;;;;4.65;4.35;;;21.80;60.50;;;;;;4973428;28;20192;-72
2022/05/30 11:52:38;;;;;;;6.22;5.65;;;23.60;54.80;;;;;;4974744;28;20245;-72
2022/05/30 11:55:26;;;;;;;3.30;3.15;;;24.30;52.10;;;;;;4973504;28;20558;-72
2022/05/30 11:57:57;;;;;;;8.90;8.20;;;23.70;51.30;;;;;;4974496;28;20311;-72
2022/05/30 12:00:40;;;;;;;6.47;6.10;;;23.20;53.90;;;;;;4974047;28;20184;-71
2022/05/30 12:03:37;;;;;;;6.85;6.55;;;23.40;52.50;;;;;;4989708;28;20279;-71
2022/05/30 12:06:12;;;;;;;8.15;7.65;;;23.00;53.90;;;;;;4973168;28;20696;-72
2022/05/30 12:08:46;;;;;;;6.03;5.43;;;22.60;56.20;;;;;;4973969;28;20570;-71
2022/05/30 12:11:37;;;;;;;4.82;4.53;;;22.90;52.00;;;;;;4974205;28;20184;-71
2022/05/30 12:14:06;;;;;;;3.67;3.38;;;22.90;51.40;;;;;;4989469;28;20340;-71
2022/05/30 12:16:41;;;;;;;3.33;3.20;;;23.40;50.50;;;;;;4973833;28;20239;-71
2022/05/30 12:25:36;;;;;;;4.18;3.88;;;27.40;47.40;;;;;;4974141;28;20657;-71
2022/05/30 12:28:27;;;;;;;4.05;3.75;;;26.90;47.20;;;;;;4972649;28;20189;-71
2022/05/30 12:30:59;;;;;;;4.20;3.90;;;24.50;52.70;;;;;;4973667;28;20185;-71
2022/05/30 12:33:30;;;;;;;4.35;3.80;;;22.90;54.20;;;;;;4973790;28;20200;-70
2022/05/30 12:36:08;;;;;;;11.30;10.70;;;22.00;56.70;;;;;;4972572;28;20205;-71
2022/05/30 12:38:57;;;;;;;10.98;10.27;;;21.50;58.10;;;;;;4973421;28;20217;-70
2022/05/30 12:41:30;;;;;;;8.18;7.78;;;21.20;57.80;;;;;;4974213;28;20185;-70
2022/05/30 12:43:57;;;;;;;4.13;3.93;;;21.40;54.90;;;;;;4977933;28;20239;-71
2022/05/30 12:46:29;;;;;;;3.65;3.42;;;21.50;59.60;;;;;;4974227;28;20201;-71
2022/05/30 12:49:14;;;;;;;4.25;4.05;;;21.50;58.40;;;;;;4973513;28;20220;-70
2022/05/30 12:52:01;;;;;;;4.93;3.97;;;21.10;57.00;;;;;;4973954;28;20274;-70
2022/05/30 12:54:48;;;;;;;21.33;16.55;;;20.90;59.90;;;;;;4973578;28;20181;-70
2022/05/30 12:57:36;;;;;;;7.18;6.47;;;20.60;58.10;;;;;;4961517;28;20227;-72
2022/05/30 13:00:14;;;;;;;6.30;5.90;;;20.40;61.40;;;;;;4972350;28;20209;-71
2022/05/30 13:02:46;;;;;;;5.33;4.83;;;20.40;63.40;;;;;;4972080;28;20188;-71
2022/05/30 13:05:41;;;;;;;4.57;3.70;;;20.40;55.70;;;;;;4988297;28;20195;-71
2022/05/30 13:08:44;;;;;;;4.43;4.10;;;20.40;56.60;;;;;;4973189;28;20200;-71
2022/05/30 13:11:33;;;;;;;5.28;4.97;;;21.80;57.00;;;;;;4970446;28;20555;-71
2022/05/30 13:14:19;;;;;;;4.28;3.95;;;24.50;54.70;;;;;;4967889;28;20192;-71
2022/05/30 13:16:47;;;;;;;4.55;4.15;;;25.70;48.00;;;;;;4971369;28;20608;-72
2022/05/30 13:19:16;;;;;;;6.78;6.03;;;26.40;48.20;;;;;;4987800;28;20173;-71
2022/05/30 13:21:47;;;;;;;6.07;5.57;;;24.80;46.20;;;;;;4972963;28;20187;-71
2022/05/30 13:24:34;;;;;;;3.78;3.47;;;23.30;49.70;;;;;;4973065;28;20213;-71
2022/05/30 13:27:01;;;;;;;3.53;3.42;;;24.50;50.20;;;;;;4968358;28;20201;-71
2022/05/30 13:29:41;;;;;;;9.25;5.78;;;26.30;47.10;;;;;;4972734;28;20173;-71
2022/05/30 13:32:14;;;;;;;5.00;4.57;;;27.20;43.70;;;;;;4972874;28;20577;-71
2022/05/30 13:34:48;;;;;;;6.03;5.72;;;27.30;41.20;;;;;;4972821;28;20185;-71
2022/05/30 13:37:24;;;;;;;7.93;7.40;;;27.80;41.10;;;;;;4972383;28;20561;-71
2022/05/30 13:39:51;;;;;;;4.80;4.50;;;29.60;38.80;;;;;;4973111;28;20748;-72
2022/05/30 13:42:17;;;;;;;5.15;4.90;;;29.90;37.10;;;;;;4972828;28;20181;-71
2022/05/30 13:44:42;;;;;;;5.18;4.97;;;29.90;34.90;;;;;;4987713;28;20565;-71
2022/05/30 13:47:15;;;;;;;5.35;5.15;;;29.90;37.60;;;;;;4972431;28;20569;-71
2022/05/30 13:49:50;;;;;;;9.63;9.07;;;30.20;37.10;;;;;;4972479;28;20184;-71
2022/05/30 13:52:26;;;;;;;8.82;8.32;;;30.80;35.60;;;;;;4972659;28;20216;-71
2022/05/30 13:55:05;;;;;;;9.75;9.10;;;30.20;37.70;;;;;;4972630;28;20187;-71
2022/05/30 13:57:31;;;;;;;8.75;8.35;;;29.60;36.70;;;;;;4972326;28;20287;-71
2022/05/30 14:00:01;;;;;;;9.10;8.63;;;29.70;37.40;;;;;;4972481;28;20189;-71
2022/05/30 14:02:33;;;;;;;9.60;8.93;;;30.00;38.30;;;;;;4987751;28;20224;-70
2022/05/30 14:05:02;;;;;;;9.38;8.05;;;29.60;36.80;;;;;;4972639;28;20189;-70
2022/05/30 14:07:33;;;;;;;5.28;4.90;;;27.80;37.60;;;;;;4971861;28;20216;-71
2022/05/30 14:10:03;;;;;;;6.03;5.72;;;26.00;40.90;;;;;;4972598;28;20224;-71
2022/05/30 14:12:43;;;;;;;6.78;6.28;;;26.80;42.00;;;;;;4972801;28;20603;-71
2022/05/30 14:15:19;;;;;;;5.85;5.32;;;27.40;39.60;;;;;;4972911;28;20184;-71
2022/05/30 14:17:48;;;;;;;4.07;3.85;;;28.10;39.00;;;;;;4987499;28;20245;-71
2022/05/30 14:20:26;;;;;;;3.45;3.33;;;28.60;38.00;;;;;;4987643;28;20185;-70
2022/05/30 14:23:10;;;;;;;4.53;4.28;;;29.10;36.80;;;;;;4976543;28;20299;-72
2022/05/30 14:25:54;;;;;;;4.95;4.65;;;29.60;36.30;;;;;;5007123;28;20275;-73
2022/05/30 14:28:28;;;;;;;4.30;3.53;;;29.50;37.10;;;;;;4972121;28;20246;-71
2022/05/30 14:30:56;;;;;;;6.18;5.80;;;29.60;38.30;;;;;;4987542;28;20181;-75
2022/05/30 14:33:24;;;;;;;7.43;7.03;;;29.40;36.30;;;;;;4972262;28;20264;-72
2022/05/30 14:36:11;;;;;;;6.97;6.55;;;29.20;34.90;;;;;;4972290;28;20180;-73
2022/05/30 14:38:43;;;;;;;5.90;5.55;;;29.40;33.50;;;;;;4971680;28;20622;-72
2022/05/30 14:41:09;;;;;;;6.25;5.95;;;30.00;32.90;;;;;;4987616;28;20592;-70
2022/05/30 14:43:51;;;;;;;3.78;3.65;;;30.10;32.70;;;;;;4971777;28;20188;-70
2022/05/30 14:46:28;;;;;;;3.70;3.55;;;30.50;31.90;;;;;;4984936;28;20209;-70
2022/05/30 14:48:54;;;;;;;4.38;4.03;;;30.20;32.20;;;;;;4967667;28;20208;-70
2022/05/30 14:51:27;;;;;;;6.18;5.80;;;29.60;34.60;;;;;;4971531;28;20220;-69
2022/05/30 14:53:58;;;;;;;6.32;6.03;;;29.60;32.50;;;;;;4971502;28;20204;-70
2022/05/30 14:56:26;;;;;;;3.30;3.10;;;29.40;32.70;;;;;;4971845;28;20200;-70
2022/05/30 14:58:56;;;;;;;4.43;4.22;;;29.50;33.80;;;;;;4971326;28;20205;-69
2022/05/30 15:01:23;;;;;;;4.97;4.68;;;30.00;31.50;;;;;;4971235;28;20586;-70
2022/05/30 15:04:05;;;;;;;5.68;5.40;;;30.30;32.20;;;;;;4971772;28;20188;-70
2022/05/30 15:06:34;;;;;;;6.05;5.75;;;30.60;32.60;;;;;;4975561;28;20205;-70
2022/05/30 15:08:59;;;;;;;4.20;4.10;;;30.50;32.40;;;;;;4975515;28;20213;-69
2022/05/30 15:11:26;;;;;;;3.00;2.90;;;30.20;31.80;;;;;;4975768;28;20240;-68
2022/05/30 15:13:54;;;;;;;7.05;6.68;;;29.50;33.80;;;;;;4975536;28;20255;-68
2022/05/30 15:16:21;;;;;;;4.57;4.38;;;29.00;32.50;;;;;;4990173;28;20245;-68
2022/05/30 15:18:48;;;;;;;4.88;4.68;;;27.90;33.70;;;;;;4975108;28;20594;-68
2022/05/30 15:21:18;;;;;;;8.65;8.02;;;27.60;33.10;;;;;;4990242;28;20192;-68
2022/05/30 15:23:44;;;;;;;4.15;3.95;;;28.30;33.70;;;;;;4973901;28;20192;-68
2022/05/30 15:26:10;;;;;;;6.13;5.72;;;28.90;33.10;;;;;;5006657;23;20232;-74
2022/05/30 15:28:36;;;;;;;4.65;4.43;;;29.00;33.70;;;;;;4993282;28;20243;-75
2022/05/30 15:31:02;;;;;;;4.20;3.90;;;29.00;34.20;;;;;;4993161;28;20649;-74
2022/05/30 15:33:29;;;;;;;5.43;5.03;;;29.50;32.50;;;;;;4994493;28;20194;-74
2022/05/30 15:35:54;;;;;;;6.85;6.38;;;28.90;32.30;;;;;;4994398;28;20196;-75
2022/05/30 15:38:20;;;;;;;6.60;6.30;;;28.50;33.30;;;;;;4994183;28;20187;-73
2022/05/30 15:40:46;;;;;;;5.30;5.10;;;28.60;33.80;;;;;;4995037;28;20244;-73
2022/05/30 15:43:12;;;;;;;4.35;4.15;;;28.80;34.00;;;;;;4994747;28;20724;-74
2022/05/30 15:45:38;;;;;;;3.28;3.13;;;28.80;33.30;;;;;;4994444;28;20291;-73
2022/05/30 15:48:04;;;;;;;3.75;3.47;;;29.40;31.30;;;;;;4993899;28;20235;-74
2022/05/30 15:50:32;;;;;;;3.70;3.50;;;29.40;32.60;;;;;;4994144;28;20185;-74
2022/05/30 15:58:32;;;;;;;2.97;2.78;;;29.00;31.20;;;;;;4993849;28;20189;-74
2022/05/30 16:00:57;;;;;;;4.32;3.90;;;28.60;30.80;;;;;;4994098;28;20196;-74
2022/05/30 16:03:24;;;;;;;4.15;3.85;;;28.40;30.90;;;;;;4994181;28;20266;-74
2022/05/30 16:05:51;;;;;;;3.33;3.20;;;29.10;31.40;;;;;;4994448;28;20243;-74
2022/05/30 16:08:28;;;;;;;6.05;5.72;;;29.20;31.10;;;;;;4993486;28;20753;-74
2022/05/30 16:10:54;;;;;;;6.80;6.10;;;28.90;31.40;;;;;;4991731;28;20180;-75
2022/05/30 16:13:21;;;;;;;4.68;4.40;;;29.20;30.90;;;;;;4973450;28;20177;-75
2022/05/30 16:15:47;;;;;;;4.40;4.15;;;28.90;30.80;;;;;;4971740;28;20728;-74
2022/05/30 16:18:12;;;;;;;4.00;3.72;;;29.30;29.10;;;;;;4986715;28;20183;-71
2022/05/30 16:20:38;;;;;;;4.97;4.65;;;29.20;29.40;;;;;;4987955;28;20559;-75
2022/05/30 16:23:05;;;;;;;8.55;7.38;;;29.40;30.90;;;;;;4990776;28;20308;-75
2022/05/30 16:25:31;;;;;;;5.05;4.65;;;28.70;31.60;;;;;;4993232;28;20668;-75
2022/05/30 16:27:59;;;;;;;4.20;3.75;;;28.70;30.60;;;;;;4992979;28;20307;-75
2022/05/30 16:30:25;;;;;;;4.35;4.10;;;28.40;30.60;;;;;;4992897;28;20561;-75
2022/05/30 16:32:51;;;;;;;3.95;3.63;;;27.80;32.00;;;;;;4990933;28;20177;-75
2022/05/30 16:35:18;;;;;;;4.72;4.43;;;27.20;32.30;;;;;;4992711;28;20204;-72